sensor_id;sensor_type;location;lat;lon;timestamp;temperature;humidity
64499;SHT31;51087;55.718;21.122;2023-06-22T00:02:17;18.76;99.99
64499;SHT31;51087;55.718;21.122;2023-06-22T00:04:43;18.75;99.99
64499;SHT31;51087;55.718;21.122;2023-06-22T00:07:08;18.76;99.99
64499;SHT31;51087;55.718;21.122;2023-06-22T00:09:34;18.77;99.99
64499;SHT31;51087;55.718;21.122;2023-06-22T00:11:59;18.75;99.99
64499;SHT31;51087;55.718;21.122;2023-06-22T00:14:25;18.70;99.99
64499;SHT31;51087;55.718;21.122;2023-06-22T00:16:50;18.72;99.99
64499;SHT31;51087;55.718;21.122;2023-06-22T00:19:21;18.68;99.99
64499;SHT31;51087;55.718;21.122;2023-06-22T00:21:47;18.63;99.99
64499;SHT31;51087;55.718;21.122;2023-06-22T00:24:13;18.65;99.99
64499;SHT31;51087;55.718;21.122;2023-06-22T00:26:38;18.56;99.99
64499;SHT31;51087;55.718;21.122;2023-06-22T00:29:04;18.59;99.99
64499;SHT31;51087;55.718;21.122;2023-06-22T00:31:29;18.55;99.99
64499;SHT31;51087;55.718;21.122;2023-06-22T00:33:55;18.53;99.99
64499;SHT31;51087;55.718;21.122;2023-06-22T00:36:20;18.53;99.99
64499;SHT31;51087;55.718;21.122;2023-06-22T00:38:45;18.52;99.99
64499;SHT31;51087;55.718;21.122;2023-06-22T00:41:11;18.49;99.99
64499;SHT31;51087;55.718;21.122;2023-06-22T00:43:36;18.48;99.99
64499;SHT31;51087;55.718;21.122;2023-06-22T00:46:02;18.48;99.99
64499;SHT31;51087;55.718;21.122;2023-06-22T00:48:27;18.49;99.99
64499;SHT31;51087;55.718;21.122;2023-06-22T00:50:53;18.49;99.99
64499;SHT31;51087;55.718;21.122;2023-06-22T00:53:21;18.47;99.99
64499;SHT31;51087;55.718;21.122;2023-06-22T00:55:47;18.45;99.99
64499;SHT31;51087;55.718;21.122;2023-06-22T00:58:13;18.42;99.99
64499;SHT31;51087;55.718;21.122;2023-06-22T01:00:40;18.44;99.99
64499;SHT31;51087;55.718;21.122;2023-06-22T01:03:06;18.47;99.99
64499;SHT31;51087;55.718;21.122;2023-06-22T01:05:36;18.48;99.99
64499;SHT31;51087;55.718;21.122;2023-06-22T01:16:31;18.51;99.99
64499;SHT31;51087;55.718;21.122;2023-06-22T01:19:01;18.53;99.99
64499;SHT31;51087;55.718;21.122;2023-06-22T01:21:29;18.47;99.99
64499;SHT31;51087;55.718;21.122;2023-06-22T01:26:42;18.48;99.99
64499;SHT31;51087;55.718;21.122;2023-06-22T01:29:11;18.49;99.99
64499;SHT31;51087;55.718;21.122;2023-06-22T01:31:40;18.52;99.99
64499;SHT31;51087;55.718;21.122;2023-06-22T01:34:07;18.48;99.99
64499;SHT31;51087;55.718;21.122;2023-06-22T01:36:34;18.51;99.99
64499;SHT31;51087;55.718;21.122;2023-06-22T01:39:02;18.49;99.99
64499;SHT31;51087;55.718;21.122;2023-06-22T01:41:30;18.49;99.99
64499;SHT31;51087;55.718;21.122;2023-06-22T01:43:56;18.44;99.99
64499;SHT31;51087;55.718;21.122;2023-06-22T01:46:23;18.45;99.99
64499;SHT31;51087;55.718;21.122;2023-06-22T01:48:49;18.47;99.99
64499;SHT31;51087;55.718;21.122;2023-06-22T01:51:15;18.47;99.99
64499;SHT31;51087;55.718;21.122;2023-06-22T01:53:41;18.49;99.99
64499;SHT31;51087;55.718;21.122;2023-06-22T01:56:06;18.47;99.99
64499;SHT31;51087;55.718;21.122;2023-06-22T01:58:32;18.51;99.99
64499;SHT31;51087;55.718;21.122;2023-06-22T02:01:09;18.47;99.99
64499;SHT31;51087;55.718;21.122;2023-06-22T02:03:38;18.48;99.99
64499;SHT31;51087;55.718;21.122;2023-06-22T02:06:08;18.44;99.99
64499;SHT31;51087;55.718;21.122;2023-06-22T02:08:47;18.44;99.99
64499;SHT31;51087;55.718;21.122;2023-06-22T02:11:15;18.38;99.99
64499;SHT31;51087;55.718;21.122;2023-06-22T02:13:41;18.31;99.99
64499;SHT31;51087;55.718;21.122;2023-06-22T02:16:11;18.31;99.99
64499;SHT31;51087;55.718;21.122;2023-06-22T02:18:36;18.28;99.99
64499;SHT31;51087;55.718;21.122;2023-06-22T02:21:02;18.28;99.99
64499;SHT31;51087;55.718;21.122;2023-06-22T02:23:28;18.18;99.99
64499;SHT31;51087;55.718;21.122;2023-06-22T02:25:53;18.21;99.99
64499;SHT31;51087;55.718;21.122;2023-06-22T02:28:19;18.11;99.99
64499;SHT31;51087;55.718;21.122;2023-06-22T02:30:44;18.11;99.99
64499;SHT31;51087;55.718;21.122;2023-06-22T02:33:10;18.04;99.99
64499;SHT31;51087;55.718;21.122;2023-06-22T02:35:35;18.05;99.99
64499;SHT31;51087;55.718;21.122;2023-06-22T02:38:02;18.07;99.99
64499;SHT31;51087;55.718;21.122;2023-06-22T02:40:29;18.05;99.99
64499;SHT31;51087;55.718;21.122;2023-06-22T02:42:55;18.01;99.99
64499;SHT31;51087;55.718;21.122;2023-06-22T02:45:20;17.96;99.99
64499;SHT31;51087;55.718;21.122;2023-06-22T02:47:46;18.00;99.99
64499;SHT31;51087;55.718;21.122;2023-06-22T02:50:13;17.97;99.99
64499;SHT31;51087;55.718;21.122;2023-06-22T02:52:39;17.87;99.99
64499;SHT31;51087;55.718;21.122;2023-06-22T02:55:05;17.90;99.99
64499;SHT31;51087;55.718;21.122;2023-06-22T02:57:32;17.89;99.99
64499;SHT31;51087;55.718;21.122;2023-06-22T02:59:58;17.94;99.99
64499;SHT31;51087;55.718;21.122;2023-06-22T03:02:23;17.87;99.99
64499;SHT31;51087;55.718;21.122;2023-06-22T03:04:48;17.93;99.99
64499;SHT31;51087;55.718;21.122;2023-06-22T03:07:15;17.91;99.99
64499;SHT31;51087;55.718;21.122;2023-06-22T03:09:40;17.90;99.99
64499;SHT31;51087;55.718;21.122;2023-06-22T03:12:07;17.90;99.99
64499;SHT31;51087;55.718;21.122;2023-06-22T03:14:33;17.83;99.99
64499;SHT31;51087;55.718;21.122;2023-06-22T03:16:58;17.79;99.99
64499;SHT31;51087;55.718;21.122;2023-06-22T03:19:28;17.86;99.99
64499;SHT31;51087;55.718;21.122;2023-06-22T03:21:54;17.73;99.99
64499;SHT31;51087;55.718;21.122;2023-06-22T03:24:20;17.75;99.99
64499;SHT31;51087;55.718;21.122;2023-06-22T03:26:45;17.79;99.99
64499;SHT31;51087;55.718;21.122;2023-06-22T03:29:12;17.87;99.99
64499;SHT31;51087;55.718;21.122;2023-06-22T03:31:37;17.91;99.99
64499;SHT31;51087;55.718;21.122;2023-06-22T03:34:03;17.94;99.99
64499;SHT31;51087;55.718;21.122;2023-06-22T03:36:28;17.91;99.99
64499;SHT31;51087;55.718;21.122;2023-06-22T03:38:53;17.97;99.99
64499;SHT31;51087;55.718;21.122;2023-06-22T03:41:19;18.03;99.99
64499;SHT31;51087;55.718;21.122;2023-06-22T03:43:44;18.10;99.99
64499;SHT31;51087;55.718;21.122;2023-06-22T03:46:10;18.08;99.99
64499;SHT31;51087;55.718;21.122;2023-06-22T03:48:35;18.08;99.99
64499;SHT31;51087;55.718;21.122;2023-06-22T03:51:01;18.05;99.99
64499;SHT31;51087;55.718;21.122;2023-06-22T03:53:26;18.11;99.99
64499;SHT31;51087;55.718;21.122;2023-06-22T03:55:52;18.07;99.99
64499;SHT31;51087;55.718;21.122;2023-06-22T03:58:19;18.13;99.99
64499;SHT31;51087;55.718;21.122;2023-06-22T04:00:52;18.21;99.99
64499;SHT31;51087;55.718;21.122;2023-06-22T04:03:18;18.22;99.99
64499;SHT31;51087;55.718;21.122;2023-06-22T04:05:44;18.24;99.99
64499;SHT31;51087;55.718;21.122;2023-06-22T04:08:10;18.17;99.99
64499;SHT31;51087;55.718;21.122;2023-06-22T04:10:35;18.15;99.99
64499;SHT31;51087;55.718;21.122;2023-06-22T04:13:00;18.18;99.99
64499;SHT31;51087;55.718;21.122;2023-06-22T04:15:26;18.17;99.99
64499;SHT31;51087;55.718;21.122;2023-06-22T04:17:51;18.31;99.99
64499;SHT31;51087;55.718;21.122;2023-06-22T04:20:17;18.32;99.99
64499;SHT31;51087;55.718;21.122;2023-06-22T04:22:42;18.42;99.99
64499;SHT31;51087;55.718;21.122;2023-06-22T04:25:08;18.45;99.99
64499;SHT31;51087;55.718;21.122;2023-06-22T04:27:34;18.49;99.99
64499;SHT31;51087;55.718;21.122;2023-06-22T04:30:06;18.53;99.99
64499;SHT31;51087;55.718;21.122;2023-06-22T04:32:32;18.60;99.87
64499;SHT31;51087;55.718;21.122;2023-06-22T04:34:57;18.66;99.72
64499;SHT31;51087;55.718;21.122;2023-06-22T04:37:23;18.72;99.54
64499;SHT31;51087;55.718;21.122;2023-06-22T04:39:49;18.70;99.39
64499;SHT31;51087;55.718;21.122;2023-06-22T04:42:15;18.68;99.60
64499;SHT31;51087;55.718;21.122;2023-06-22T04:44:40;18.62;99.80
64499;SHT31;51087;55.718;21.122;2023-06-22T04:47:07;18.62;99.66
64499;SHT31;51087;55.718;21.122;2023-06-22T04:49:34;18.80;99.58
64499;SHT31;51087;55.718;21.122;2023-06-22T04:52:06;18.75;99.29
64499;SHT31;51087;55.718;21.122;2023-06-22T04:54:32;18.68;99.53
64499;SHT31;51087;55.718;21.122;2023-06-22T04:57:05;18.76;99.44
64499;SHT31;51087;55.718;21.122;2023-06-22T04:59:36;18.79;99.46
64499;SHT31;51087;55.718;21.122;2023-06-22T05:02:02;18.79;99.04
64499;SHT31;51087;55.718;21.122;2023-06-22T05:04:29;18.66;99.41
64499;SHT31;51087;55.718;21.122;2023-06-22T05:06:57;18.53;99.92
64499;SHT31;51087;55.718;21.122;2023-06-22T05:09:23;18.41;99.75
64499;SHT31;51087;55.718;21.122;2023-06-22T05:11:50;18.45;99.77
64499;SHT31;51087;55.718;21.122;2023-06-22T05:14:16;18.44;99.94
64499;SHT31;51087;55.718;21.122;2023-06-22T05:16:42;18.31;99.76
64499;SHT31;51087;55.718;21.122;2023-06-22T05:19:08;18.34;99.93
64499;SHT31;51087;55.718;21.122;2023-06-22T05:21:34;18.35;99.63
64499;SHT31;51087;55.718;21.122;2023-06-22T05:23:59;18.45;99.00
64499;SHT31;51087;55.718;21.122;2023-06-22T05:26:30;18.49;99.00
64499;SHT31;51087;55.718;21.122;2023-06-22T05:28:57;18.60;98.46
64499;SHT31;51087;55.718;21.122;2023-06-22T05:31:23;18.66;98.21
64499;SHT31;51087;55.718;21.122;2023-06-22T05:33:51;18.70;98.37
64499;SHT31;51087;55.718;21.122;2023-06-22T05:36:17;18.83;97.84
64499;SHT31;51087;55.718;21.122;2023-06-22T05:38:45;18.90;97.61
64499;SHT31;51087;55.718;21.122;2023-06-22T05:41:11;19.11;97.01
64499;SHT31;51087;55.718;21.122;2023-06-22T05:43:36;19.27;96.28
64499;SHT31;51087;55.718;21.122;2023-06-22T05:46:02;19.24;96.44
64499;SHT31;51087;55.718;21.122;2023-06-22T05:48:27;19.28;96.13
64499;SHT31;51087;55.718;21.122;2023-06-22T05:50:53;19.17;96.74
64499;SHT31;51087;55.718;21.122;2023-06-22T05:53:19;19.24;96.65
64499;SHT31;51087;55.718;21.122;2023-06-22T05:55:44;19.27;96.63
64499;SHT31;51087;55.718;21.122;2023-06-22T05:58:11;19.38;96.33
64499;SHT31;51087;55.718;21.122;2023-06-22T06:00:36;19.20;96.69
64499;SHT31;51087;55.718;21.122;2023-06-22T06:03:02;19.18;96.82
64499;SHT31;51087;55.718;21.122;2023-06-22T06:05:32;19.16;97.07
64499;SHT31;51087;55.718;21.122;2023-06-22T06:08:03;19.18;96.83
64499;SHT31;51087;55.718;21.122;2023-06-22T06:10:30;19.08;96.73
64499;SHT31;51087;55.718;21.122;2023-06-22T06:12:56;19.02;97.06
64499;SHT31;51087;55.718;21.122;2023-06-22T06:15:21;19.00;97.01
64499;SHT31;51087;55.718;21.122;2023-06-22T06:17:52;19.06;96.79
64499;SHT31;51087;55.718;21.122;2023-06-22T06:20:22;19.13;96.76
64499;SHT31;51087;55.718;21.122;2023-06-22T06:22:48;19.21;96.56
64499;SHT31;51087;55.718;21.122;2023-06-22T06:25:15;19.23;96.47
64499;SHT31;51087;55.718;21.122;2023-06-22T06:27:48;19.35;96.05
64499;SHT31;51087;55.718;21.122;2023-06-22T06:30:14;19.51;95.78
64499;SHT31;51087;55.718;21.122;2023-06-22T06:32:41;19.32;96.06
64499;SHT31;51087;55.718;21.122;2023-06-22T06:35:10;19.41;95.90
64499;SHT31;51087;55.718;21.122;2023-06-22T06:37:37;19.44;95.84
64499;SHT31;51087;55.718;21.122;2023-06-22T06:40:07;19.48;95.62
64499;SHT31;51087;55.718;21.122;2023-06-22T06:42:39;19.47;95.47
64499;SHT31;51087;55.718;21.122;2023-06-22T06:45:19;19.47;95.15
64499;SHT31;51087;55.718;21.122;2023-06-22T06:47:47;19.47;94.86
64499;SHT31;51087;55.718;21.122;2023-06-22T06:50:13;19.58;94.75
64499;SHT31;51087;55.718;21.122;2023-06-22T06:52:38;19.39;95.20
64499;SHT31;51087;55.718;21.122;2023-06-22T06:55:04;19.71;94.36
64499;SHT31;51087;55.718;21.122;2023-06-22T06:57:34;20.01;93.74
64499;SHT31;51087;55.718;21.122;2023-06-22T07:00:00;20.12;92.91
64499;SHT31;51087;55.718;21.122;2023-06-22T07:02:26;20.07;92.51
64499;SHT31;51087;55.718;21.122;2023-06-22T07:04:53;20.16;92.22
64499;SHT31;51087;55.718;21.122;2023-06-22T07:07:20;20.05;92.50
64499;SHT31;51087;55.718;21.122;2023-06-22T07:09:46;19.99;92.62
64499;SHT31;51087;55.718;21.122;2023-06-22T07:12:11;20.40;91.56
64499;SHT31;51087;55.718;21.122;2023-06-22T07:14:37;20.21;91.81
64499;SHT31;51087;55.718;21.122;2023-06-22T07:17:03;20.24;91.68
64499;SHT31;51087;55.718;21.122;2023-06-22T07:19:28;20.45;91.31
64499;SHT31;51087;55.718;21.122;2023-06-22T07:21:54;20.49;90.51
64499;SHT31;51087;55.718;21.122;2023-06-22T07:24:20;20.41;91.13
64499;SHT31;51087;55.718;21.122;2023-06-22T07:26:49;20.45;90.78
64499;SHT31;51087;55.718;21.122;2023-06-22T07:29:16;20.58;89.95
64499;SHT31;51087;55.718;21.122;2023-06-22T07:31:42;20.52;90.48
64499;SHT31;51087;55.718;21.122;2023-06-22T07:34:07;20.26;90.80
64499;SHT31;51087;55.718;21.122;2023-06-22T07:36:33;20.33;90.69
64499;SHT31;51087;55.718;21.122;2023-06-22T07:39:01;20.43;90.41
64499;SHT31;51087;55.718;21.122;2023-06-22T07:41:27;20.30;90.71
64499;SHT31;51087;55.718;21.122;2023-06-22T07:43:52;20.27;90.87
64499;SHT31;51087;55.718;21.122;2023-06-22T07:46:18;20.24;90.98
64499;SHT31;51087;55.718;21.122;2023-06-22T07:48:43;20.06;91.57
64499;SHT31;51087;55.718;21.122;2023-06-22T07:51:09;20.09;91.18
64499;SHT31;51087;55.718;21.122;2023-06-22T07:53:34;19.92;91.95
64499;SHT31;51087;55.718;21.122;2023-06-22T07:56:01;20.06;91.75
64499;SHT31;51087;55.718;21.122;2023-06-22T07:58:32;20.06;91.44
64499;SHT31;51087;55.718;21.122;2023-06-22T08:00:57;20.33;90.47
64499;SHT31;51087;55.718;21.122;2023-06-22T08:03:23;20.43;90.39
64499;SHT31;51087;55.718;21.122;2023-06-22T08:05:48;20.79;88.64
64499;SHT31;51087;55.718;21.122;2023-06-22T08:08:14;20.81;88.42
64499;SHT31;51087;55.718;21.122;2023-06-22T08:10:39;20.85;87.88
64499;SHT31;51087;55.718;21.122;2023-06-22T08:13:06;20.44;88.55
64499;SHT31;51087;55.718;21.122;2023-06-22T08:15:31;20.67;88.29
64499;SHT31;51087;55.718;21.122;2023-06-22T08:17:56;20.69;88.45
64499;SHT31;51087;55.718;21.122;2023-06-22T08:20:23;20.78;87.90
64499;SHT31;51087;55.718;21.122;2023-06-22T08:22:48;20.91;87.66
64499;SHT31;51087;55.718;21.122;2023-06-22T08:25:13;20.81;88.07
64499;SHT31;51087;55.718;21.122;2023-06-22T08:27:39;20.47;89.03
64499;SHT31;51087;55.718;21.122;2023-06-22T08:30:06;20.36;89.66
64499;SHT31;51087;55.718;21.122;2023-06-22T08:32:31;20.49;89.52
64499;SHT31;51087;55.718;21.122;2023-06-22T08:34:57;20.36;89.70
64499;SHT31;51087;55.718;21.122;2023-06-22T08:37:23;20.23;90.51
64499;SHT31;51087;55.718;21.122;2023-06-22T08:39:56;20.43;89.45
64499;SHT31;51087;55.718;21.122;2023-06-22T08:42:22;20.68;88.55
64499;SHT31;51087;55.718;21.122;2023-06-22T08:44:48;20.63;89.35
64499;SHT31;51087;55.718;21.122;2023-06-22T08:47:13;20.75;88.72
64499;SHT31;51087;55.718;21.122;2023-06-22T08:49:39;20.05;90.30
64499;SHT31;51087;55.718;21.122;2023-06-22T08:52:04;20.18;89.95
64499;SHT31;51087;55.718;21.122;2023-06-22T08:54:30;20.06;90.72
64499;SHT31;51087;55.718;21.122;2023-06-22T08:56:58;20.34;89.66
64499;SHT31;51087;55.718;21.122;2023-06-22T08:59:23;20.36;89.36
64499;SHT31;51087;55.718;21.122;2023-06-22T09:01:48;20.64;88.81
64499;SHT31;51087;55.718;21.122;2023-06-22T09:04:14;20.30;89.52
64499;SHT31;51087;55.718;21.122;2023-06-22T09:06:40;20.40;88.90
64499;SHT31;51087;55.718;21.122;2023-06-22T09:09:10;20.33;89.37
64499;SHT31;51087;55.718;21.122;2023-06-22T09:11:37;20.14;89.59
64499;SHT31;51087;55.718;21.122;2023-06-22T09:14:03;20.47;88.87
64499;SHT31;51087;55.718;21.122;2023-06-22T09:16:29;20.59;88.36
64499;SHT31;51087;55.718;21.122;2023-06-22T09:18:54;20.12;89.14
64499;SHT31;51087;55.718;21.122;2023-06-22T09:21:19;20.40;89.30
64499;SHT31;51087;55.718;21.122;2023-06-22T09:23:45;20.58;88.20
64499;SHT31;51087;55.718;21.122;2023-06-22T09:26:15;20.26;88.41
64499;SHT31;51087;55.718;21.122;2023-06-22T09:28:40;20.43;88.56
64499;SHT31;51087;55.718;21.122;2023-06-22T09:31:06;20.44;88.45
64499;SHT31;51087;55.718;21.122;2023-06-22T09:33:32;20.64;87.02
64499;SHT31;51087;55.718;21.122;2023-06-22T09:35:57;20.69;86.14
64499;SHT31;51087;55.718;21.122;2023-06-22T09:38:23;20.49;86.73
64499;SHT31;51087;55.718;21.122;2023-06-22T09:40:48;20.61;87.40
64499;SHT31;51087;55.718;21.122;2023-06-22T09:43:14;20.58;86.61
64499;SHT31;51087;55.718;21.122;2023-06-22T09:45:39;20.59;85.85
64499;SHT31;51087;55.718;21.122;2023-06-22T09:48:05;20.74;85.62
64499;SHT31;51087;55.718;21.122;2023-06-22T09:50:30;20.63;85.47
64499;SHT31;51087;55.718;21.122;2023-06-22T09:52:56;20.74;85.05
64499;SHT31;51087;55.718;21.122;2023-06-22T09:55:22;21.04;83.86
64499;SHT31;51087;55.718;21.122;2023-06-22T09:57:47;21.48;82.92
64499;SHT31;51087;55.718;21.122;2023-06-22T10:00:14;21.53;82.32
64499;SHT31;51087;55.718;21.122;2023-06-22T10:02:43;21.65;81.27
64499;SHT31;51087;55.718;21.122;2023-06-22T10:05:09;21.71;80.68
64499;SHT31;51087;55.718;21.122;2023-06-22T10:07:34;21.69;81.52
64499;SHT31;51087;55.718;21.122;2023-06-22T10:10:00;21.31;82.09
64499;SHT31;51087;55.718;21.122;2023-06-22T10:12:27;22.22;79.36
64499;SHT31;51087;55.718;21.122;2023-06-22T10:14:52;22.35;79.02
64499;SHT31;51087;55.718;21.122;2023-06-22T10:17:18;22.36;78.44
64499;SHT31;51087;55.718;21.122;2023-06-22T10:19:43;22.02;79.07
64499;SHT31;51087;55.718;21.122;2023-06-22T10:22:08;22.85;77.56
64499;SHT31;51087;55.718;21.122;2023-06-22T10:24:34;23.38;75.48
64499;SHT31;51087;55.718;21.122;2023-06-22T10:26:59;23.43;73.91
64499;SHT31;51087;55.718;21.122;2023-06-22T10:29:25;23.81;73.29
64499;SHT31;51087;55.718;21.122;2023-06-22T10:31:50;24.26;71.85
64499;SHT31;51087;55.718;21.122;2023-06-22T10:34:16;23.08;73.82
64499;SHT31;51087;55.718;21.122;2023-06-22T10:36:41;23.57;73.71
64499;SHT31;51087;55.718;21.122;2023-06-22T10:39:07;23.35;74.36
64499;SHT31;51087;55.718;21.122;2023-06-22T10:41:32;23.96;71.95
64499;SHT31;51087;55.718;21.122;2023-06-22T10:43:57;26.13;66.85
64499;SHT31;51087;55.718;21.122;2023-06-22T10:46:26;26.53;63.87
64499;SHT31;51087;55.718;21.122;2023-06-22T10:48:53;26.99;62.84
64499;SHT31;51087;55.718;21.122;2023-06-22T10:51:20;24.95;68.14
64499;SHT31;51087;55.718;21.122;2023-06-22T10:53:45;24.11;70.32
64499;SHT31;51087;55.718;21.122;2023-06-22T10:56:11;24.26;70.13
64499;SHT31;51087;55.718;21.122;2023-06-22T10:58:36;24.09;70.20
64499;SHT31;51087;55.718;21.122;2023-06-22T11:01:02;24.74;69.85
64499;SHT31;51087;55.718;21.122;2023-06-22T11:03:28;24.36;70.68
64499;SHT31;51087;55.718;21.122;2023-06-22T11:05:55;24.35;69.86
64499;SHT31;51087;55.718;21.122;2023-06-22T11:08:20;25.31;67.37
64499;SHT31;51087;55.718;21.122;2023-06-22T11:10:46;25.07;68.44
64499;SHT31;51087;55.718;21.122;2023-06-22T11:13:11;24.45;70.01
64499;SHT31;51087;55.718;21.122;2023-06-22T11:15:37;24.29;69.18
64499;SHT31;51087;55.718;21.122;2023-06-22T11:18:02;25.17;67.97
64499;SHT31;51087;55.718;21.122;2023-06-22T11:20:30;24.62;69.67
64499;SHT31;51087;55.718;21.122;2023-06-22T11:22:55;24.63;69.10
64499;SHT31;51087;55.718;21.122;2023-06-22T11:25:21;24.56;69.19
64499;SHT31;51087;55.718;21.122;2023-06-22T11:27:46;26.11;65.97
64499;SHT31;51087;55.718;21.122;2023-06-22T11:30:13;25.67;64.58
64499;SHT31;51087;55.718;21.122;2023-06-22T11:32:38;27.52;61.94
64499;SHT31;51087;55.718;21.122;2023-06-22T11:35:04;27.35;62.50
64499;SHT31;51087;55.718;21.122;2023-06-22T11:37:29;27.04;62.91
64499;SHT31;51087;55.718;21.122;2023-06-22T11:39:55;28.02;60.15
64499;SHT31;51087;55.718;21.122;2023-06-22T11:42:20;28.44;58.61
64499;SHT31;51087;55.718;21.122;2023-06-22T11:44:46;26.35;63.98
64499;SHT31;51087;55.718;21.122;2023-06-22T11:47:11;26.66;63.03
64499;SHT31;51087;55.718;21.122;2023-06-22T11:49:36;26.99;62.52
64499;SHT31;51087;55.718;21.122;2023-06-22T11:52:02;25.72;65.81
64499;SHT31;51087;55.718;21.122;2023-06-22T11:54:30;26.47;64.03
64499;SHT31;51087;55.718;21.122;2023-06-22T11:56:55;27.22;61.90
64499;SHT31;51087;55.718;21.122;2023-06-22T11:59:21;26.48;64.18
64499;SHT31;51087;55.718;21.122;2023-06-22T12:01:47;26.90;63.36
64499;SHT31;51087;55.718;21.122;2023-06-22T12:04:14;27.20;62.32
64499;SHT31;51087;55.718;21.122;2023-06-22T12:06:39;26.59;62.98
64499;SHT31;51087;55.718;21.122;2023-06-22T12:09:07;28.07;59.24
64499;SHT31;51087;55.718;21.122;2023-06-22T12:11:32;27.92;58.65
64499;SHT31;51087;55.718;21.122;2023-06-22T12:13:58;27.82;60.06
64499;SHT31;51087;55.718;21.122;2023-06-22T12:16:27;27.47;60.44
64499;SHT31;51087;55.718;21.122;2023-06-22T12:18:52;28.44;57.67
64499;SHT31;51087;55.718;21.122;2023-06-22T12:21:19;29.56;56.13
64499;SHT31;51087;55.718;21.122;2023-06-22T12:23:44;29.89;54.25
64499;SHT31;51087;55.718;21.122;2023-06-22T12:26:09;29.03;55.90
64499;SHT31;51087;55.718;21.122;2023-06-22T12:28:35;27.30;60.84
64499;SHT31;51087;55.718;21.122;2023-06-22T12:31:00;27.90;59.45
64499;SHT31;51087;55.718;21.122;2023-06-22T12:33:25;27.65;60.36
64499;SHT31;51087;55.718;21.122;2023-06-22T12:35:51;25.92;63.27
64499;SHT31;51087;55.718;21.122;2023-06-22T12:38:16;26.37;62.46
64499;SHT31;51087;55.718;21.122;2023-06-22T12:40:42;26.83;61.15
64499;SHT31;51087;55.718;21.122;2023-06-22T12:43:07;28.40;58.32
64499;SHT31;51087;55.718;21.122;2023-06-22T12:45:33;29.19;56.24
64499;SHT31;51087;55.718;21.122;2023-06-22T12:47:59;27.38;60.26
64499;SHT31;51087;55.718;21.122;2023-06-22T12:50:25;27.07;61.14
64499;SHT31;51087;55.718;21.122;2023-06-22T12:52:50;27.77;58.91
64499;SHT31;51087;55.718;21.122;2023-06-22T12:55:16;27.47;59.57
64499;SHT31;51087;55.718;21.122;2023-06-22T12:57:41;28.54;57.94
64499;SHT31;51087;55.718;21.122;2023-06-22T13:00:07;28.60;56.91
64499;SHT31;51087;55.718;21.122;2023-06-22T13:02:35;28.09;57.09
64499;SHT31;51087;55.718;21.122;2023-06-22T13:05:01;28.81;57.04
64499;SHT31;51087;55.718;21.122;2023-06-22T13:07:26;28.20;57.74
64499;SHT31;51087;55.718;21.122;2023-06-22T13:09:52;28.06;58.53
64499;SHT31;51087;55.718;21.122;2023-06-22T13:12:17;29.40;55.23
64499;SHT31;51087;55.718;21.122;2023-06-22T13:14:45;28.21;58.73
64499;SHT31;51087;55.718;21.122;2023-06-22T13:17:11;27.84;59.60
64499;SHT31;51087;55.718;21.122;2023-06-22T13:19:37;28.68;57.29
64499;SHT31;51087;55.718;21.122;2023-06-22T13:22:03;28.96;56.46
64499;SHT31;51087;55.718;21.122;2023-06-22T13:24:29;28.61;57.46
64499;SHT31;51087;55.718;21.122;2023-06-22T13:26:54;28.14;58.49
64499;SHT31;51087;55.718;21.122;2023-06-22T13:29:20;28.28;58.85
64499;SHT31;51087;55.718;21.122;2023-06-22T13:31:46;27.93;57.59
64499;SHT31;51087;55.718;21.122;2023-06-22T13:34:11;27.86;58.38
64499;SHT31;51087;55.718;21.122;2023-06-22T13:36:37;28.13;58.07
64499;SHT31;51087;55.718;21.122;2023-06-22T13:39:03;27.71;59.59
64499;SHT31;51087;55.718;21.122;2023-06-22T13:41:29;28.44;58.11
64499;SHT31;51087;55.718;21.122;2023-06-22T13:43:54;28.79;56.40
64499;SHT31;51087;55.718;21.122;2023-06-22T13:46:19;27.58;59.88
64499;SHT31;51087;55.718;21.122;2023-06-22T13:48:45;29.64;54.85
64499;SHT31;51087;55.718;21.122;2023-06-22T13:51:10;28.74;57.26
64499;SHT31;51087;55.718;21.122;2023-06-22T13:53:36;29.16;55.10
64499;SHT31;51087;55.718;21.122;2023-06-22T13:56:01;28.27;58.05
64499;SHT31;51087;55.718;21.122;2023-06-22T13:58:26;27.38;60.29
64499;SHT31;51087;55.718;21.122;2023-06-22T14:00:52;27.42;59.60
64499;SHT31;51087;55.718;21.122;2023-06-22T14:03:17;27.93;58.76
64499;SHT31;51087;55.718;21.122;2023-06-22T14:05:43;27.17;59.92
64499;SHT31;51087;55.718;21.122;2023-06-22T14:08:08;28.33;58.37
64499;SHT31;51087;55.718;21.122;2023-06-22T14:10:34;28.30;57.54
64499;SHT31;51087;55.718;21.122;2023-06-22T14:13:00;29.33;56.04
64499;SHT31;51087;55.718;21.122;2023-06-22T14:15:25;29.10;55.70
64499;SHT31;51087;55.718;21.122;2023-06-22T14:17:52;28.48;56.86
64499;SHT31;51087;55.718;21.122;2023-06-22T14:20:17;27.27;59.98
64499;SHT31;51087;55.718;21.122;2023-06-22T14:22:43;27.98;58.45
64499;SHT31;51087;55.718;21.122;2023-06-22T14:25:08;27.06;60.47
64499;SHT31;51087;55.718;21.122;2023-06-22T14:27:34;27.51;59.72
64499;SHT31;51087;55.718;21.122;2023-06-22T14:29:59;27.40;59.77
64499;SHT31;51087;55.718;21.122;2023-06-22T14:32:28;27.61;59.38
64499;SHT31;51087;55.718;21.122;2023-06-22T14:34:55;27.24;60.01
64499;SHT31;51087;55.718;21.122;2023-06-22T14:37:20;27.27;60.02
64499;SHT31;51087;55.718;21.122;2023-06-22T14:39:45;27.23;60.90
64499;SHT31;51087;55.718;21.122;2023-06-22T14:42:11;27.92;58.71
64499;SHT31;51087;55.718;21.122;2023-06-22T14:44:36;28.60;57.86
64499;SHT31;51087;55.718;21.122;2023-06-22T14:47:02;30.08;54.37
64499;SHT31;51087;55.718;21.122;2023-06-22T14:49:27;27.00;61.34
64499;SHT31;51087;55.718;21.122;2023-06-22T14:51:52;26.00;63.88
64499;SHT31;51087;55.718;21.122;2023-06-22T14:54:18;24.32;68.44
64499;SHT31;51087;55.718;21.122;2023-06-22T14:56:43;24.26;68.75
64499;SHT31;51087;55.718;21.122;2023-06-22T14:59:09;25.80;64.40
64499;SHT31;51087;55.718;21.122;2023-06-22T15:01:35;26.48;63.13
64499;SHT31;51087;55.718;21.122;2023-06-22T15:04:00;27.69;60.21
64499;SHT31;51087;55.718;21.122;2023-06-22T15:06:26;27.61;60.88
64499;SHT31;51087;55.718;21.122;2023-06-22T15:08:52;28.48;58.06
64499;SHT31;51087;55.718;21.122;2023-06-22T15:11:18;25.70;63.93
64499;SHT31;51087;55.718;21.122;2023-06-22T15:13:44;24.40;68.50
64499;SHT31;51087;55.718;21.122;2023-06-22T15:16:09;23.35;71.55
64499;SHT31;51087;55.718;21.122;2023-06-22T15:18:35;23.29;73.06
64499;SHT31;51087;55.718;21.122;2023-06-22T15:21:02;23.60;70.95